Time;durP1;ratioP1;P1;durP2;ratioP2;P2;SDS_P1;SDS_P2;PMS_P1;PMS_P2;Temp;Humidity;BMP_temperature;BMP_pressure;BME280_temperature;BME280_humidity;BME280_pressure;Samples;Min_cycle;Max_cycle;Signal;HPM_P1;HPM_P2
2021/10/31 00:00:12;;;;;;;47.35;14.88;;;;;;;8.76;100.00;100972.13;6390325;27;20193;-73
2021/10/31 00:03:19;;;;;;;42.05;15.25;;;;;;;8.75;100.00;100954.13;6389984;27;20194;-73
2021/10/31 00:06:24;;;;;;;46.20;16.33;;;;;;;8.81;100.00;100934.25;6389651;27;20188;-74
2021/10/31 00:09:29;;;;;;;55.72;17.33;;;;;;;8.77;100.00;100940.31;6389032;27;20512;-73
2021/10/31 00:12:34;;;;;;;42.53;15.77;;;;;;;8.83;100.00;100924.00;6389952;27;20188;-74
2021/10/31 00:15:38;;;;;;;46.90;16.08;;;;;;;8.76;100.00;100912.28;6389913;27;20248;-73
2021/10/31 00:18:43;;;;;;;58.85;17.23;;;;;;;8.81;100.00;100909.78;6389871;27;20182;-74
2021/10/31 00:21:47;;;;;;;58.63;17.70;;;;;;;8.75;100.00;100921.50;6389814;27;20193;-74
2021/10/31 00:24:52;;;;;;;57.17;17.90;;;;;;;8.82;100.00;100911.47;6389694;27;20227;-73
2021/10/31 00:27:56;;;;;;;55.58;18.88;;;;;;;8.83;100.00;100909.59;6388593;27;20266;-73
2021/10/31 00:31:01;;;;;;;55.50;18.00;;;;;;;8.89;100.00;100907.91;6388303;27;20255;-74
2021/10/31 00:34:09;;;;;;;64.30;17.63;;;;;;;8.87;100.00;100886.34;6388877;27;20190;-73
2021/10/31 00:37:13;;;;;;;56.35;18.38;;;;;;;8.95;100.00;100875.28;6388475;27;20354;-73
2021/10/31 00:40:20;;;;;;;51.10;18.60;;;;;;;9.03;100.00;100863.38;6389631;27;20185;-73
2021/10/31 00:43:25;;;;;;;61.60;20.35;;;;;;;8.99;100.00;100859.41;6389225;27;20345;-73
2021/10/31 00:46:29;;;;;;;60.15;20.10;;;;;;;8.98;100.00;100866.72;6389203;27;20181;-73
2021/10/31 00:49:35;;;;;;;56.97;20.25;;;;;;;8.95;100.00;100839.06;6388041;27;20426;-73
2021/10/31 00:52:41;;;;;;;57.60;19.70;;;;;;;9.01;100.00;100854.59;6387934;27;20217;-73
2021/10/31 00:55:45;;;;;;;54.83;19.88;;;;;;;9.20;100.00;100861.94;6389415;27;20186;-73
2021/10/31 00:58:49;;;;;;;68.90;21.50;;;;;;;9.11;100.00;100857.75;6388928;27;20252;-73
2021/10/31 01:01:55;;;;;;;62.53;20.27;;;;;;;9.28;100.00;100839.97;6387660;27;20269;-73
2021/10/31 01:05:03;;;;;;;58.92;20.35;;;;;;;9.12;100.00;100840.34;6388769;27;20181;-73
2021/10/31 01:08:21;;;;;;;66.65;22.25;;;;;;;9.14;100.00;100827.41;6389016;27;20186;-73
2021/10/31 01:11:39;;;;;;;61.05;22.23;;;;;;;9.14;100.00;100843.72;6388829;27;20205;-73
2021/10/31 01:15:00;;;;;;;59.97;22.42;;;;;;;9.14;100.00;100841.00;6388975;27;20182;-73
2021/10/31 01:18:24;;;;;;;67.80;22.67;;;;;;;9.15;100.00;100826.34;6388264;27;20213;-73
2021/10/31 01:21:43;;;;;;;62.97;22.30;;;;;;;9.27;100.00;100827.41;6388438;27;20255;-74
2021/10/31 01:25:03;;;;;;;63.00;22.27;;;;;;;9.29;100.00;100820.72;6388577;27;20181;-73
2021/10/31 01:28:19;;;;;;;74.70;24.38;;;;;;;9.46;100.00;100804.78;6388179;27;20181;-73
2021/10/31 01:31:34;;;;;;;62.88;24.10;;;;;;;9.39;100.00;100784.88;6388445;27;20286;-73
2021/10/31 01:34:50;;;;;;;60.67;25.05;;;;;;;9.40;100.00;100797.44;6387947;27;20253;-73
2021/10/31 01:38:04;;;;;;;65.32;25.95;;;;;;;9.51;100.00;100796.81;6388528;27;20219;-73
2021/10/31 01:41:16;;;;;;;68.90;27.77;;;;;;;9.57;100.00;100806.88;6387135;28;20186;-73
2021/10/31 01:44:30;;;;;;;71.22;31.85;;;;;;;9.58;100.00;100808.53;6388354;28;20251;-73
2021/10/31 01:47:44;;;;;;;72.22;31.08;;;;;;;9.52;100.00;100812.09;6387076;28;20400;-73
2021/10/31 01:50:49;;;;;;;69.50;30.55;;;;;;;9.56;100.00;100802.47;6387033;28;20408;-74
2021/10/31 01:53:58;;;;;;;65.82;29.92;;;;;;;9.57;100.00;100790.53;6388137;28;20181;-73
2021/10/31 01:57:08;;;;;;;59.90;29.85;;;;;;;9.64;100.00;100783.16;6388584;28;20213;-72
2021/10/31 02:00:15;;;;;;;65.75;30.60;;;;;;;9.68;100.00;100787.13;6386928;28;20353;-73
2021/10/31 02:03:22;;;;;;;62.65;31.25;;;;;;;9.75;100.00;100776.25;6387941;28;20178;-73
2021/10/31 02:06:27;;;;;;;62.47;30.92;;;;;;;9.80;100.00;100769.09;6387302;28;20219;-73
2021/10/31 02:09:34;;;;;;;58.83;29.75;;;;;;;9.85;100.00;100772.03;6387175;28;20220;-73
2021/10/31 02:12:42;;;;;;;62.28;29.58;;;;;;;9.90;100.00;100746.84;6387718;28;20212;-73
2021/10/31 02:15:51;;;;;;;58.47;30.05;;;;;;;9.85;100.00;100739.31;6388147;28;20182;-73
2021/10/31 02:19:02;;;;;;;63.22;29.58;;;;;;;9.85;100.00;100738.47;6388084;28;20227;-73
2021/10/31 02:22:10;;;;;;;66.10;30.55;;;;;;;9.81;100.00;100738.06;6387731;28;20217;-73
2021/10/31 02:25:16;;;;;;;61.35;29.58;;;;;;;9.96;100.00;100725.00;6387653;28;20186;-74
2021/10/31 02:28:20;;;;;;;54.00;27.67;;;;;;;9.95;100.00;100712.47;6386509;27;20378;-74
2021/10/31 02:31:24;;;;;;;55.97;28.88;;;;;;;9.99;100.00;100701.94;6392279;27;20235;-74
2021/10/31 02:34:29;;;;;;;60.08;29.20;;;;;;;10.02;100.00;100696.91;6392445;27;20286;-74
2021/10/31 02:37:34;;;;;;;50.50;27.42;;;;;;;9.99;100.00;100680.97;6391175;27;20429;-74
2021/10/31 02:40:39;;;;;;;55.92;29.15;;;;;;;10.06;100.00;100691.88;6392812;27;20199;-74
2021/10/31 02:43:44;;;;;;;60.60;28.25;;;;;;;10.12;100.00;100687.44;6391219;27;20265;-74
2021/10/31 02:46:48;;;;;;;52.45;26.65;;;;;;;10.08;100.00;100679.69;6392531;27;20182;-74
2021/10/31 02:49:55;;;;;;;50.88;27.60;;;;;;;10.08;100.00;100660.59;6391041;27;20391;-74
2021/10/31 02:53:17;;;;;;;56.25;26.90;;;;;;;10.11;100.00;100663.94;6392222;27;20283;-75
2021/10/31 02:56:28;;;;;;;51.85;27.15;;;;;;;10.06;100.00;100654.56;6390846;27;20495;-74
2021/10/31 02:59:43;;;;;;;56.72;26.75;;;;;;;9.99;100.00;100653.72;6390825;27;20469;-73
2021/10/31 03:02:49;;;;;;;52.05;26.73;;;;;;;10.17;100.00;100671.28;6392111;27;20311;-73
2021/10/31 03:05:57;;;;;;;54.28;26.63;;;;;;;10.25;100.00;100658.22;6390595;27;20181;-74
2021/10/31 03:09:01;;;;;;;55.08;26.50;;;;;;;10.35;100.00;100657.75;6391964;27;20244;-77
2021/10/31 03:12:09;;;;;;;52.63;26.48;;;;;;;10.25;100.00;100649.19;6391821;27;20206;-74
2021/10/31 03:15:14;;;;;;;51.85;26.98;;;;;;;10.18;100.00;100640.22;6391919;27;20182;-74
2021/10/31 03:18:19;;;;;;;49.80;25.98;;;;;;;10.12;100.00;100622.00;6391721;27;20248;-74
2021/10/31 03:21:24;;;;;;;48.08;25.40;;;;;;;10.24;100.00;100618.41;6391592;27;20217;-74
2021/10/31 03:24:28;;;;;;;45.97;24.90;;;;;;;10.22;100.00;100627.84;6391378;27;20249;-74
2021/10/31 03:27:33;;;;;;;45.60;24.05;;;;;;;10.36;100.00;100618.50;6390194;27;20182;-74
2021/10/31 03:30:38;;;;;;;49.90;24.30;;;;;;;10.25;100.00;100613.75;6390401;27;20232;-74
2021/10/31 03:33:42;;;;;;;43.38;24.55;;;;;;;10.31;100.00;100607.44;6389953;27;20401;-74
2021/10/31 03:36:47;;;;;;;53.45;24.95;;;;;;;10.19;100.00;100601.03;6391058;27;20219;-74
2021/10/31 03:39:51;;;;;;;50.83;25.73;;;;;;;10.26;100.00;100604.53;6390502;27;20213;-74
2021/10/31 03:42:57;;;;;;;42.88;23.40;;;;;;;10.19;100.00;100603.75;6390445;27;20221;-74
2021/10/31 03:46:01;;;;;;;44.80;23.80;;;;;;;10.27;100.00;100585.22;6390832;27;20182;-73
2021/10/31 03:49:06;;;;;;;44.42;23.05;;;;;;;10.21;100.00;100598.91;6389665;27;20189;-73
2021/10/31 03:52:12;;;;;;;44.45;23.50;;;;;;;10.29;100.00;100587.75;6389592;27;20399;-73
2021/10/31 03:55:18;;;;;;;42.05;23.08;;;;;;;10.30;100.00;100586.66;6390034;27;20182;-74
2021/10/31 03:58:23;;;;;;;36.58;22.48;;;;;;;10.22;100.00;100590.50;6389678;27;20245;-74
2021/10/31 04:01:31;;;;;;;41.25;22.73;;;;;;;10.17;100.00;100600.41;6389798;27;20192;-74
2021/10/31 04:04:36;;;;;;;43.53;22.75;;;;;;;10.29;100.00;100587.75;6390325;27;20192;-74
2021/10/31 04:07:41;;;;;;;39.22;21.77;;;;;;;10.30;100.00;100581.22;6390637;27;20185;-74
2021/10/31 04:10:45;;;;;;;44.92;22.15;;;;;;;10.15;100.00;100600.63;6390243;27;20186;-74
2021/10/31 04:13:51;;;;;;;45.17;22.73;;;;;;;10.08;100.00;100592.47;6389975;27;20306;-74
2021/10/31 04:16:55;;;;;;;42.47;22.67;;;;;;;10.06;100.00;100580.94;6388916;27;20258;-74
2021/10/31 04:19:59;;;;;;;43.33;21.05;;;;;;;10.06;100.00;100556.41;6389981;27;20244;-74
2021/10/31 04:23:04;;;;;;;38.33;21.35;;;;;;;10.09;100.00;100552.41;6390125;27;20193;-74
2021/10/31 04:26:10;;;;;;;45.35;21.52;;;;;;;10.14;100.00;100551.78;6388772;27;20540;-74
2021/10/31 04:29:15;;;;;;;36.30;20.73;;;;;;;10.06;100.00;100550.97;6373774;27;20244;-74
2021/10/31 04:32:20;;;;;;;38.25;21.35;;;;;;;10.03;100.00;100545.97;6388623;27;20308;-74
2021/10/31 04:35:24;;;;;;;38.28;19.95;;;;;;;10.06;100.00;100548.25;6389150;27;20185;-74
2021/10/31 04:38:30;;;;;;;40.92;21.67;;;;;;;9.91;100.00;100542.25;6389898;27;20182;-74
2021/10/31 04:41:35;;;;;;;41.88;21.23;;;;;;;9.94;100.00;100552.72;6389056;27;20189;-74
2021/10/31 04:44:40;;;;;;;38.10;20.48;;;;;;;10.14;100.00;100546.34;6388370;27;20375;-74
2021/10/31 04:47:44;;;;;;;32.75;19.90;;;;;;;10.03;100.00;100536.94;6388254;27;20473;-74
2021/10/31 04:50:48;;;;;;;37.35;19.92;;;;;;;9.91;100.00;100528.63;6369898;27;20273;-74
2021/10/31 04:53:53;;;;;;;35.03;19.95;;;;;;;9.84;100.00;100530.56;6389000;27;20209;-74
2021/10/31 04:56:57;;;;;;;36.70;20.88;;;;;;;9.85;100.00;100531.41;6387933;27;20181;-73
2021/10/31 05:00:04;;;;;;;39.50;19.70;;;;;;;9.77;100.00;100524.31;6389167;27;20216;-73
2021/10/31 05:03:11;;;;;;;33.42;19.23;;;;;;;9.71;100.00;100530.63;6389175;27;20189;-74
2021/10/31 05:06:15;;;;;;;34.22;19.38;;;;;;;9.66;100.00;100535.91;6387755;27;20498;-74
2021/10/31 05:09:19;;;;;;;36.20;20.35;;;;;;;9.64;100.00;100529.84;6389048;27;20182;-74
2021/10/31 05:12:25;;;;;;;35.22;20.63;;;;;;;9.67;100.00;100532.13;6388964;27;20206;-74
2021/10/31 05:15:31;;;;;;;41.80;19.60;;;;;;;9.66;100.00;100516.84;6388975;27;20188;-74
2021/10/31 05:18:35;;;;;;;34.40;19.70;;;;;;;9.67;100.00;100507.63;6388994;27;20188;-74
2021/10/31 05:21:39;;;;;;;36.00;19.60;;;;;;;9.72;100.00;100505.06;6387413;27;20408;-73
2021/10/31 05:24:44;;;;;;;41.47;20.67;;;;;;;9.67;100.00;100512.22;6388288;27;20196;-74
2021/10/31 05:27:48;;;;;;;32.15;18.85;;;;;;;9.69;100.00;100505.50;6387350;27;20205;-74
2021/10/31 05:30:53;;;;;;;37.20;19.95;;;;;;;9.81;100.00;100520.09;6388286;27;20232;-74
2021/10/31 05:33:58;;;;;;;43.95;19.77;;;;;;;9.75;100.00;100515.53;6388702;27;20209;-74
2021/10/31 05:37:02;;;;;;;38.33;20.70;;;;;;;9.75;100.00;100531.03;6388289;27;20302;-74
2021/10/31 05:40:10;;;;;;;34.10;19.83;;;;;;;9.75;100.00;100531.88;6388220;27;20181;-74
2021/10/31 05:43:14;;;;;;;39.53;19.92;;;;;;;9.75;100.00;100525.59;6387251;28;20414;-74
2021/10/31 05:46:20;;;;;;;40.20;19.90;;;;;;;9.78;100.00;100520.56;6388477;28;20182;-74
2021/10/31 05:49:24;;;;;;;37.40;19.75;;;;;;;9.69;100.00;100521.84;6388198;28;20185;-74
2021/10/31 05:52:28;;;;;;;40.35;19.33;;;;;;;9.69;100.00;100516.41;6386992;28;20193;-74
2021/10/31 05:55:32;;;;;;;36.88;19.98;;;;;;;9.76;100.00;100517.19;6388105;28;20182;-74
2021/10/31 05:58:36;;;;;;;34.58;19.50;;;;;;;9.72;100.00;100515.13;6387102;28;20377;-74
2021/10/31 06:01:42;;;;;;;36.95;19.50;;;;;;;9.80;100.00;100513.00;6386848;28;20436;-74
2021/10/31 06:04:49;;;;;;;44.70;19.77;;;;;;;9.88;100.00;100501.00;6392397;27;20186;-75
2021/10/31 06:07:55;;;;;;;35.28;19.98;;;;;;;9.90;100.00;100491.53;6392251;27;20495;-74
2021/10/31 06:10:59;;;;;;;38.25;20.48;;;;;;;9.95;100.00;100489.00;6392058;27;20549;-75
2021/10/31 06:14:13;;;;;;;38.05;20.38;;;;;;;9.92;100.00;100492.16;6391839;27;20209;-73
2021/10/31 06:17:19;;;;;;;44.03;21.17;;;;;;;9.85;100.00;100498.69;6393312;27;20181;-74
2021/10/31 06:20:23;;;;;;;36.97;20.42;;;;;;;9.98;100.00;100502.19;6393266;27;20188;-74
2021/10/31 06:23:28;;;;;;;36.45;20.58;;;;;;;9.97;100.00;100492.31;6392744;27;20185;-74
2021/10/31 06:26:36;;;;;;;41.47;21.27;;;;;;;10.08;100.00;100497.06;6391667;27;20181;-74
2021/10/31 06:29:40;;;;;;;46.65;22.13;;;;;;;10.12;100.00;100491.16;6391666;27;20277;-74
2021/10/31 06:32:47;;;;;;;44.33;21.88;;;;;;;10.18;100.00;100499.31;6392480;27;20186;-74
2021/10/31 06:35:51;;;;;;;42.42;21.92;;;;;;;10.22;100.00;100499.72;6392411;27;20188;-74
2021/10/31 06:38:56;;;;;;;39.22;21.52;;;;;;;10.20;100.00;100502.66;6391744;27;20186;-74
2021/10/31 06:42:00;;;;;;;42.15;22.15;;;;;;;10.10;100.00;100502.28;6392699;27;20182;-74
2021/10/31 06:45:05;;;;;;;39.03;21.67;;;;;;;10.18;100.00;100503.94;6391337;27;20185;-74
2021/10/31 06:48:11;;;;;;;44.40;21.23;;;;;;;10.23;100.00;100506.81;6391282;27;20249;-74
2021/10/31 06:51:16;;;;;;;48.85;22.00;;;;;;;10.30;100.00;100497.53;6392140;27;20213;-74
2021/10/31 06:54:20;;;;;;;43.47;21.65;;;;;;;10.25;100.00;100499.25;6392330;27;20254;-73
2021/10/31 06:57:24;;;;;;;43.63;22.23;;;;;;;10.34;100.00;100503.38;6392416;27;20234;-74
2021/10/31 07:00:28;;;;;;;44.22;22.20;;;;;;;10.41;100.00;100506.88;6392088;27;20181;-74
2021/10/31 07:03:34;;;;;;;44.90;22.10;;;;;;;10.36;100.00;100506.72;6390832;27;20277;-74
2021/10/31 07:06:38;;;;;;;41.15;21.30;;;;;;;10.45;100.00;100510.84;6392066;27;20182;-74
2021/10/31 07:09:43;;;;;;;37.70;20.75;;;;;;;10.43;100.00;100507.47;6392026;27;20181;-74
2021/10/31 07:12:47;;;;;;;48.78;22.50;;;;;;;10.31;100.00;100512.00;6391585;27;20189;-74
2021/10/31 07:15:51;;;;;;;46.38;22.17;;;;;;;10.18;100.00;100512.09;6389549;27;20485;-74
2021/10/31 07:18:57;;;;;;;46.10;23.27;;;;;;;10.25;100.00;100521.06;6391721;27;20191;-74
2021/10/31 07:22:02;;;;;;;46.17;23.48;;;;;;;10.25;100.00;100504.69;6391291;27;20256;-74
2021/10/31 07:25:07;;;;;;;47.75;24.10;;;;;;;10.31;100.00;100525.63;6391426;27;20196;-74
2021/10/31 07:28:13;;;;;;;48.85;24.40;;;;;;;10.30;100.00;100504.84;6391537;27;20245;-74
2021/10/31 07:31:21;;;;;;;49.30;24.70;;;;;;;10.30;100.00;100513.03;6390524;27;20346;-74
2021/10/31 07:34:27;;;;;;;46.58;23.77;;;;;;;10.18;100.00;100509.38;6389802;27;20520;-74
2021/10/31 07:37:32;;;;;;;49.67;24.27;;;;;;;10.23;100.00;100513.13;6389776;27;20549;-74
2021/10/31 07:40:36;;;;;;;46.63;23.17;;;;;;;10.20;100.00;100515.44;6390845;27;20181;-74
2021/10/31 07:43:40;;;;;;;55.35;25.67;;;;;;;10.25;100.00;100515.59;6389690;27;20358;-74
2021/10/31 07:46:45;;;;;;;50.75;24.55;;;;;;;10.30;100.00;100518.50;6391099;27;20188;-73
2021/10/31 07:49:51;;;;;;;54.35;25.42;;;;;;;10.25;100.00;100516.44;6390581;27;20181;-73
2021/10/31 07:52:55;;;;;;;54.20;25.67;;;;;;;10.39;100.00;100512.56;6389830;27;20234;-73
2021/10/31 07:55:59;;;;;;;49.78;24.55;;;;;;;10.34;100.00;100503.38;6389389;27;20438;-73
2021/10/31 07:59:04;;;;;;;51.03;24.65;;;;;;;10.51;100.00;100509.91;6390697;27;20191;-73
2021/10/31 08:02:08;;;;;;;49.22;24.27;;;;;;;10.56;100.00;100507.34;6390283;27;20189;-73
2021/10/31 08:05:14;;;;;;;49.33;24.80;;;;;;;10.44;100.00;100503.69;6390091;27;20185;-74
2021/10/31 08:08:21;;;;;;;51.30;25.17;;;;;;;10.58;100.00;100499.78;6390627;27;20219;-74
2021/10/31 08:11:25;;;;;;;54.60;24.92;;;;;;;10.51;100.00;100509.91;6390436;27;20185;-73
2021/10/31 08:14:29;;;;;;;46.13;23.58;;;;;;;10.53;100.00;100507.78;6388860;27;20508;-73
2021/10/31 08:17:34;;;;;;;48.08;24.55;;;;;;;10.51;100.00;100515.38;6389861;27;20360;-73
2021/10/31 08:20:39;;;;;;;53.25;24.92;;;;;;;10.36;100.00;100509.44;6388745;27;20201;-74
2021/10/31 08:23:43;;;;;;;46.35;24.55;;;;;;;10.35;100.00;100521.41;6388645;27;20339;-74
2021/10/31 08:26:48;;;;;;;45.80;24.75;;;;;;;10.52;100.00;100517.91;6389827;27;20182;-73
2021/10/31 08:29:52;;;;;;;51.92;26.10;;;;;;;10.50;100.00;100519.19;6388428;27;20233;-75
2021/10/31 08:33:00;;;;;;;50.20;25.30;;;;;;;10.49;100.00;100514.78;6389357;27;20213;-74
2021/10/31 08:36:06;;;;;;;46.78;24.27;;;;;;;10.63;100.00;100497.22;6389836;27;20213;-74
2021/10/31 08:39:10;;;;;;;44.38;23.60;;;;;;;10.74;99.79;100496.47;6389668;27;20311;-75
2021/10/31 08:42:15;;;;;;;52.97;24.83;;;;;;;10.78;99.71;100480.47;6389218;27;20189;-74
2021/10/31 08:45:20;;;;;;;64.43;27.02;;;;;;;10.86;98.58;100470.09;6388145;27;20409;-74
2021/10/31 08:48:24;;;;;;;56.42;25.38;;;;;;;10.85;98.61;100473.88;6389697;27;20182;-74
2021/10/31 08:51:30;;;;;;;51.28;24.35;;;;;;;10.88;98.87;100478.91;6389496;27;20291;-73
2021/10/31 08:54:37;;;;;;;47.00;24.15;;;;;;;10.91;98.37;100478.44;6389221;27;20210;-73
2021/10/31 08:57:41;;;;;;;52.28;23.45;;;;;;;10.99;97.42;100480.84;6388723;27;20222;-74
2021/10/31 09:00:45;;;;;;;45.83;24.23;;;;;;;11.08;96.63;100474.03;6388787;27;20264;-74
2021/10/31 09:03:52;;;;;;;49.97;24.35;;;;;;;11.09;96.71;100472.94;6387924;27;20185;-73
2021/10/31 09:06:58;;;;;;;47.67;24.42;;;;;;;11.03;97.64;100475.78;6389008;27;20217;-74
2021/10/31 09:10:03;;;;;;;42.25;22.92;;;;;;;11.06;96.68;100470.69;6389635;27;20188;-74
2021/10/31 09:13:08;;;;;;;45.92;23.65;;;;;;;11.06;96.55;100465.25;6389074;27;20244;-74
2021/10/31 09:16:13;;;;;;;44.45;23.95;;;;;;;11.16;95.29;100460.06;6388368;27;20212;-75
2021/10/31 09:19:18;;;;;;;46.40;23.65;;;;;;;11.15;95.56;100466.59;6388344;27;20189;-75
2021/10/31 09:22:23;;;;;;;45.45;24.63;;;;;;;11.08;96.30;100457.66;6387318;27;20457;-75
2021/10/31 09:25:29;;;;;;;42.85;23.45;;;;;;;11.09;95.91;100469.41;6388251;27;20185;-73
2021/10/31 09:28:33;;;;;;;45.63;24.00;;;;;;;11.03;95.95;100479.34;6383383;27;20484;-73
2021/10/31 09:31:38;;;;;;;44.65;23.20;;;;;;;11.02;96.79;100480.41;6374789;27;20382;-73
2021/10/31 09:34:43;;;;;;;42.22;23.13;;;;;;;11.19;96.02;100486.91;6387988;27;20250;-73
2021/10/31 09:37:54;;;;;;;46.13;24.02;;;;;;;11.17;95.89;100494.50;6387597;27;20182;-73
2021/10/31 09:40:59;;;;;;;48.97;25.13;;;;;;;11.10;95.96;100512.84;6387352;27;20261;-72
2021/10/31 09:44:14;;;;;;;41.58;23.10;;;;;;;11.21;96.37;100533.94;6387287;27;20182;-72
2021/10/31 09:47:21;;;;;;;40.33;22.60;;;;;;;11.28;95.50;100548.34;6387967;28;20192;-72
2021/10/31 09:50:27;;;;;;;41.00;23.80;;;;;;;11.39;94.40;100554.09;6388198;28;20181;-73
2021/10/31 09:53:33;;;;;;;42.30;21.55;;;;;;;11.41;93.74;100576.56;6387402;28;20213;-73
2021/10/31 09:56:38;;;;;;;40.50;22.65;;;;;;;11.31;94.47;100588.84;6387948;28;20273;-74
2021/10/31 09:59:49;;;;;;;42.83;23.10;;;;;;;11.30;93.04;100587.19;6388184;28;20241;-74
2021/10/31 10:03:05;;;;;;;38.53;22.35;;;;;;;11.43;92.66;100588.91;6386686;28;20185;-73
2021/10/31 10:06:18;;;;;;;37.83;22.05;;;;;;;11.37;91.36;100594.47;6386707;28;20220;-74
2021/10/31 10:09:24;;;;;;;42.80;23.25;;;;;;;11.32;91.70;100593.25;6387761;28;20253;-73
2021/10/31 10:12:29;;;;;;;41.28;21.90;;;;;;;11.37;91.85;100597.19;6386544;28;20250;-73
2021/10/31 10:15:34;;;;;;;44.38;22.90;;;;;;;11.33;91.42;100603.13;6386521;28;20209;-73
2021/10/31 10:18:38;;;;;;;42.58;23.23;;;;;;;11.27;92.28;100598.56;6386948;28;20181;-73
2021/10/31 10:21:43;;;;;;;43.30;22.58;;;;;;;11.29;92.46;100595.59;6387964;28;20185;-75
2021/10/31 10:24:54;;;;;;;43.08;22.33;;;;;;;11.40;91.16;100592.09;6387611;28;20185;-74
2021/10/31 10:27:59;;;;;;;39.78;21.95;;;;;;;11.38;91.48;100590.66;6386478;28;20186;-74
2021/10/31 10:31:20;;;;;;;40.40;22.27;;;;;;;11.43;91.16;100571.72;6387181;28;20236;-74
2021/10/31 10:34:36;;;;;;;36.20;21.60;;;;;;;11.47;91.13;100562.00;6387844;28;20189;-74
2021/10/31 10:37:41;;;;;;;44.42;22.08;;;;;;;11.28;92.02;100578.38;6386402;28;20404;-75
2021/10/31 10:40:47;;;;;;;48.63;23.30;;;;;;;11.29;92.61;100582.78;6387770;28;20258;-75
2021/10/31 10:43:51;;;;;;;41.40;21.77;;;;;;;11.32;91.99;100584.25;6386805;28;20189;-74
2021/10/31 10:46:58;;;;;;;39.88;22.85;;;;;;;11.47;91.67;100564.72;6386112;28;20439;-75
2021/10/31 10:50:03;;;;;;;40.10;22.33;;;;;;;11.47;91.07;100570.19;6387391;27;20410;-74
2021/10/31 10:53:15;;;;;;;40.55;21.38;;;;;;;11.58;91.18;100583.09;6391939;27;20234;-75
2021/10/31 10:56:20;;;;;;;42.50;22.80;;;;;;;11.64;91.00;100593.06;6392047;27;20237;-74
2021/10/31 10:59:25;;;;;;;39.83;21.67;;;;;;;11.59;91.27;100590.19;6391791;27;20280;-73
2021/10/31 11:02:29;;;;;;;36.33;20.95;;;;;;;11.64;91.00;100593.06;6390946;27;20250;-73
2021/10/31 11:05:36;;;;;;;39.55;21.80;;;;;;;11.54;91.58;100620.94;6390197;27;20499;-74
2021/10/31 11:08:40;;;;;;;34.83;20.08;;;;;;;11.66;91.03;100618.25;6390389;27;20261;-74
2021/10/31 11:11:46;;;;;;;41.63;22.05;;;;;;;11.56;90.94;100631.63;6391250;27;20182;-74
2021/10/31 11:14:51;;;;;;;35.20;19.80;;;;;;;11.66;90.53;100645.59;6391433;27;20224;-74
2021/10/31 11:17:57;;;;;;;38.38;19.58;;;;;;;11.71;90.59;100626.66;6391524;27;20268;-73
2021/10/31 11:21:01;;;;;;;33.05;20.00;;;;;;;11.70;90.50;100630.47;6390679;27;20249;-74
2021/10/31 11:24:07;;;;;;;35.10;19.58;;;;;;;11.78;89.70;100627.41;6390262;27;20410;-74
2021/10/31 11:27:12;;;;;;;36.38;20.38;;;;;;;11.84;90.39;100634.69;6391125;27;20185;-73
2021/10/31 11:30:19;;;;;;;40.75;19.70;;;;;;;11.86;89.69;100635.31;6390085;27;20409;-74
2021/10/31 11:33:23;;;;;;;34.47;19.48;;;;;;;11.90;89.14;100639.22;6390955;27;20728;-74
2021/10/31 11:36:28;;;;;;;29.70;16.98;;;;;;;11.70;89.28;100652.31;6390113;27;20567;-74
2021/10/31 11:39:33;;;;;;;32.97;18.50;;;;;;;11.85;88.57;100636.34;6391465;27;20182;-74
2021/10/31 11:42:42;;;;;;;28.48;17.33;;;;;;;11.92;88.75;100639.84;6389856;27;20185;-74
2021/10/31 11:45:48;;;;;;;27.63;16.48;;;;;;;11.96;87.86;100634.75;6391173;27;20200;-74
2021/10/31 11:49:00;;;;;;;26.45;16.35;;;;;;;12.03;86.98;100636.31;6390937;27;20258;-74
2021/10/31 11:52:04;;;;;;;27.23;16.55;;;;;;;11.84;87.13;100643.72;6389370;27;20181;-74
2021/10/31 11:55:34;;;;;;;31.60;17.52;;;;;;;11.93;87.19;100636.03;6389591;27;20371;-75
2021/10/31 11:58:46;;;;;;;26.80;15.52;;;;;;;11.86;88.10;100632.56;6389600;27;20217;-75
2021/10/31 12:01:52;;;;;;;27.02;15.88;;;;;;;11.93;87.17;100636.03;6390382;27;20181;-74
2021/10/31 12:05:15;;;;;;;28.55;15.55;;;;;;;11.87;87.83;100645.16;6390173;27;20182;-74
2021/10/31 12:08:47;;;;;;;25.95;15.65;;;;;;;11.91;87.09;100640.91;6389305;27;20294;-74
2021/10/31 12:12:15;;;;;;;23.08;14.73;;;;;;;11.83;87.34;100650.28;6390396;27;20271;-74
2021/10/31 12:15:32;;;;;;;19.77;13.27;;;;;;;11.85;87.06;100650.88;6390293;27;20181;-73
2021/10/31 12:18:44;;;;;;;26.33;15.02;;;;;;;11.77;86.26;100647.59;6389859;27;20209;-74
2021/10/31 12:22:05;;;;;;;21.48;13.98;;;;;;;11.82;86.67;100661.41;6389870;27;20260;-75
2021/10/31 12:25:13;;;;;;;19.85;13.30;;;;;;;11.78;85.71;100660.22;6388852;27;20520;-74
2021/10/31 12:28:40;;;;;;;18.55;12.93;;;;;;;11.92;84.50;100659.81;6389775;27;20186;-73
2021/10/31 12:31:54;;;;;;;19.15;11.63;;;;;;;11.95;84.23;100666.72;6388612;27;20229;-73
2021/10/31 12:34:58;;;;;;;15.20;11.27;;;;;;;11.92;84.30;100678.09;6388477;27;20253;-73
2021/10/31 12:38:30;;;;;;;14.52;11.18;;;;;;;11.85;85.33;100680.09;6389105;27;20280;-75
2021/10/31 12:42:14;;;;;;;16.75;11.23;;;;;;;11.85;84.43;100685.56;6386210;27;20261;-74
2021/10/31 12:45:24;;;;;;;15.27;10.93;;;;;;;11.83;84.74;100687.69;6389141;27;20182;-74
2021/10/31 12:48:36;;;;;;;16.88;11.23;;;;;;;11.80;85.45;100690.88;6389434;27;20253;-74
2021/10/31 12:51:50;;;;;;;13.52;10.07;;;;;;;11.90;83.66;100689.28;6389371;27;20262;-74
2021/10/31 12:55:00;;;;;;;13.68;10.00;;;;;;;11.90;82.86;100688.44;6388023;27;20197;-75
2021/10/31 12:58:08;;;;;;;13.07;9.68;;;;;;;12.00;82.74;100691.47;6389265;27;20237;-74
2021/10/31 13:01:17;;;;;;;12.27;9.95;;;;;;;11.96;83.24;100695.75;6388987;27;20181;-74
2021/10/31 13:04:23;;;;;;;16.92;9.00;;;;;;;11.92;83.08;100694.50;6389031;27;20213;-74
2021/10/31 13:07:39;;;;;;;10.70;8.55;;;;;;;11.93;82.53;100690.72;6388855;27;20295;-73
2021/10/31 13:10:48;;;;;;;11.55;8.38;;;;;;;11.96;81.51;100690.28;6388920;27;20235;-73
2021/10/31 13:13:52;;;;;;;13.15;8.27;;;;;;;11.99;82.32;100705.38;6388042;27;20184;-74
2021/10/31 13:17:01;;;;;;;10.88;8.43;;;;;;;11.97;82.82;100713.78;6388565;27;20190;-73
2021/10/31 13:20:18;;;;;;;11.13;8.45;;;;;;;11.91;82.88;100717.47;6387430;27;20539;-73
2021/10/31 13:23:24;;;;;;;10.95;8.23;;;;;;;11.91;82.88;100725.66;6388842;27;20213;-74
2021/10/31 13:26:28;;;;;;;8.75;7.85;;;;;;;11.90;83.10;100718.50;6389362;27;20284;-74
2021/10/31 13:29:44;;;;;;;11.25;7.82;;;;;;;11.91;83.25;100731.94;6388353;27;20204;-74
2021/10/31 13:32:52;;;;;;;10.07;7.82;;;;;;;11.83;84.15;100723.22;6388509;27;20227;-74
2021/10/31 13:36:09;;;;;;;14.93;8.48;;;;;;;11.91;83.08;100731.13;6388149;27;20181;-74
2021/10/31 13:39:15;;;;;;;9.25;8.23;;;;;;;11.91;83.04;100725.66;6388306;27;20213;-74
2021/10/31 13:42:26;;;;;;;14.50;8.45;;;;;;;11.90;82.32;100727.56;6388471;27;20182;-74
2021/10/31 13:45:30;;;;;;;8.70;7.75;;;;;;;11.95;83.26;100737.81;6388015;27;20203;-74
2021/10/31 13:52:05;;;;;;;10.40;8.07;;;;;;;11.85;84.42;100742.97;6371715;28;20204;-74
2021/10/31 13:55:12;;;;;;;10.85;8.10;;;;;;;11.94;82.94;100744.31;6387967;28;20182;-74
2021/10/31 13:58:16;;;;;;;10.52;7.97;;;;;;;11.85;84.25;100751.16;6387958;28;20288;-73
2021/10/31 14:01:31;;;;;;;9.95;7.63;;;;;;;11.77;84.62;100767.88;6387244;28;20329;-74
2021/10/31 14:04:35;;;;;;;27.33;8.23;;;;;;;11.84;83.22;100771.34;6387127;28;20265;-75
2021/10/31 14:07:43;;;;;;;9.85;7.43;;;;;;;11.85;83.63;100759.38;6387642;28;20204;-75
2021/10/31 14:10:49;;;;;;;8.40;7.55;;;;;;;11.77;84.06;100770.59;6387616;28;20299;-76